createdAt,value
2023-05-10T00:01:09.964Z,6.20
2023-05-10T00:03:58.954Z,6.19
2023-05-10T00:06:47.834Z,6.17
2023-05-10T00:09:37.434Z,6.13
2023-05-10T00:12:25.986Z,6.10
2023-05-10T00:15:14.906Z,6.08
2023-05-10T00:18:03.599Z,6.07
2023-05-10T00:20:52.424Z,6.06
2023-05-10T00:23:41.302Z,6.02
2023-05-10T00:26:30.340Z,5.97
2023-05-10T00:29:19.453Z,5.94
2023-05-10T00:32:08.545Z,5.92
2023-05-10T00:34:57.578Z,5.90
2023-05-10T00:37:46.377Z,5.89
2023-05-10T00:40:38.714Z,5.86
2023-05-10T00:43:30.955Z,5.83
2023-05-10T00:46:20.065Z,5.80
2023-05-10T00:49:09.004Z,5.77
2023-05-10T00:51:58.426Z,5.74
2023-05-10T00:54:48.856Z,5.70
2023-05-10T00:57:37.684Z,5.68
2023-05-10T01:00:27.189Z,5.64
2023-05-10T01:03:33.759Z,5.59
2023-05-10T01:06:23.076Z,5.56
2023-05-10T01:09:12.753Z,5.54
2023-05-10T01:12:03.205Z,5.52
2023-05-10T01:14:52.339Z,5.50
2023-05-10T01:17:45.688Z,5.46
2023-05-10T01:20:44.411Z,5.44
2023-05-10T01:23:36.117Z,5.41
2023-05-10T01:26:59.937Z,5.38
2023-05-10T01:30:15.671Z,5.35
2023-05-10T01:33:25.977Z,5.31
2023-05-10T01:36:30.719Z,5.29
2023-05-10T01:39:30.812Z,5.26
2023-05-10T01:42:24.636Z,5.23
2023-05-10T01:45:31.887Z,5.20
2023-05-10T01:48:22.206Z,5.17
2023-05-10T01:51:11.852Z,5.14
2023-05-10T01:54:03.571Z,5.10
2023-05-10T01:57:00.508Z,5.07
2023-05-10T01:59:51.843Z,5.06
2023-05-10T02:02:45.662Z,5.04
2023-05-10T02:05:35.522Z,5.01
2023-05-10T02:08:25.450Z,4.98
2023-05-10T02:11:15.230Z,4.95
2023-05-10T02:14:06.635Z,4.93
2023-05-10T02:16:58.348Z,4.91
2023-05-10T02:19:48.398Z,4.88
2023-05-10T02:22:38.165Z,4.85
2023-05-10T02:25:28.153Z,4.81
2023-05-10T02:28:18.894Z,4.79
2023-05-10T02:31:08.477Z,4.77
2023-05-10T02:33:59.313Z,4.74
2023-05-10T02:36:48.964Z,4.71
2023-05-10T02:39:39.615Z,4.67
2023-05-10T02:42:30.245Z,4.64
2023-05-10T02:45:23.162Z,4.61
2023-05-10T02:48:11.962Z,4.57
2023-05-10T02:51:06.862Z,4.54
2023-05-10T02:53:57.630Z,4.52
2023-05-10T02:56:55.185Z,4.50
2023-05-10T02:59:44.100Z,4.47
2023-05-10T03:02:33.050Z,4.46
2023-05-10T03:05:22.410Z,4.46
2023-05-10T03:08:11.445Z,4.47
2023-05-10T03:11:46.387Z,4.47
2023-05-10T03:14:53.890Z,4.48
2023-05-10T03:17:42.743Z,4.49
2023-05-10T03:20:44.752Z,4.52
2023-05-10T03:23:44.110Z,4.57
2023-05-10T03:26:33.759Z,4.64
2023-05-10T03:29:31.895Z,4.73
2023-05-10T03:32:20.595Z,4.87
2023-05-10T03:35:10.664Z,5.17
2023-05-10T03:38:00.223Z,5.72
2023-05-10T03:40:49.425Z,6.75
2023-05-10T03:43:38.341Z,7.96
2023-05-10T03:46:27.060Z,9.18
2023-05-10T03:49:15.855Z,10.30
2023-05-10T03:52:05.013Z,11.29
2023-05-10T03:54:53.972Z,12.19
2023-05-10T03:57:43.720Z,13.01
2023-05-10T04:00:32.788Z,13.81
2023-05-10T04:03:22.476Z,14.49
2023-05-10T04:06:13.105Z,15.22
2023-05-10T04:09:05.086Z,16.12
2023-05-10T04:11:58.006Z,16.94
2023-05-10T04:14:47.054Z,17.67
2023-05-10T04:17:35.702Z,18.22
2023-05-10T04:20:24.502Z,18.64
2023-05-10T04:23:13.475Z,18.73
2023-05-10T04:26:03.463Z,18.62
2023-05-10T04:28:52.203Z,18.65
2023-05-10T04:31:41.178Z,18.46
2023-05-10T04:34:30.326Z,17.71
2023-05-10T04:37:19.335Z,16.61
2023-05-10T04:40:08.537Z,15.10
2023-05-10T04:42:57.537Z,13.84
2023-05-10T04:45:46.290Z,12.97
2023-05-10T04:48:35.223Z,12.23
2023-05-10T04:51:23.775Z,11.74
2023-05-10T04:54:13.084Z,11.36
2023-05-10T04:57:01.723Z,11.09
2023-05-10T04:59:50.677Z,10.92
2023-05-10T05:02:39.538Z,10.90
2023-05-10T05:05:28.592Z,10.84
2023-05-10T05:08:17.463Z,10.82
2023-05-10T05:11:06.368Z,10.84
2023-05-10T05:13:55.502Z,10.93
2023-05-10T05:16:44.673Z,10.98
2023-05-10T05:19:33.461Z,11.12
2023-05-10T05:22:28.619Z,11.17
2023-05-10T05:25:17.476Z,11.23
2023-05-10T05:28:06.508Z,11.34
2023-05-10T05:30:56.896Z,11.43
2023-05-10T05:33:45.655Z,11.55
2023-05-10T05:36:39.274Z,11.73
2023-05-10T05:39:28.143Z,11.84
2023-05-10T05:42:18.653Z,11.95
2023-05-10T05:45:08.346Z,12.03
2023-05-10T05:47:57.278Z,12.05
2023-05-10T05:50:47.179Z,12.15
2023-05-10T05:53:36.000Z,12.21
2023-05-10T05:56:25.715Z,12.22
2023-05-10T05:59:14.495Z,12.31
2023-05-10T06:02:03.404Z,12.40
2023-05-10T06:04:52.171Z,12.41
2023-05-10T06:07:43.541Z,12.48
2023-05-10T06:10:32.702Z,12.57
2023-05-10T06:13:21.599Z,12.67
2023-05-10T06:16:10.688Z,12.75
2023-05-10T06:18:59.644Z,12.84
2023-05-10T06:21:48.296Z,12.99
2023-05-10T06:24:37.284Z,13.08
2023-05-10T06:27:25.985Z,13.17
2023-05-10T06:30:16.387Z,13.30
2023-05-10T06:33:05.267Z,13.40
2023-05-10T06:35:54.554Z,13.51
2023-05-10T06:38:43.268Z,13.60
2023-05-10T06:41:32.067Z,13.77
2023-05-10T06:44:20.776Z,13.73
2023-05-10T06:47:09.971Z,13.62
2023-05-10T06:49:58.785Z,13.67
2023-05-10T06:52:47.537Z,13.68
2023-05-10T06:55:36.383Z,13.68
2023-05-10T06:58:26.277Z,13.78
2023-05-10T07:01:15.212Z,13.88
2023-05-10T07:04:03.964Z,14.09
2023-05-10T07:06:52.841Z,14.26
2023-05-10T07:09:41.930Z,14.40
2023-05-10T07:12:31.553Z,14.54
2023-05-10T07:15:20.596Z,14.65
2023-05-10T07:18:09.450Z,14.77
2023-05-10T07:20:59.201Z,14.96
2023-05-10T07:23:47.709Z,15.11
2023-05-10T07:26:36.842Z,15.16
2023-05-10T07:29:25.400Z,15.11
2023-05-10T07:32:14.601Z,15.18
2023-05-10T07:35:03.456Z,15.33
2023-05-10T07:37:52.754Z,15.40
2023-05-10T07:40:41.469Z,15.45
2023-05-10T07:43:31.033Z,15.47
2023-05-10T07:46:21.037Z,15.53
2023-05-10T07:49:10.261Z,15.62
2023-05-10T07:51:58.785Z,15.69
2023-05-10T07:54:47.845Z,15.78
2023-05-10T07:57:36.789Z,15.96
2023-05-10T08:00:25.722Z,16.02
2023-05-10T08:03:14.359Z,16.09
2023-05-10T08:06:03.645Z,16.18
2023-05-10T08:08:53.243Z,16.22
2023-05-10T08:11:42.218Z,16.26
2023-05-10T08:14:30.867Z,16.24
2023-05-10T08:17:20.573Z,16.32
2023-05-10T08:20:10.743Z,16.45
2023-05-10T08:23:00.547Z,16.59
2023-05-10T08:25:49.167Z,16.73
2023-05-10T08:28:38.308Z,16.80
2023-05-10T08:31:26.898Z,16.79
2023-05-10T08:34:16.196Z,16.80
2023-05-10T08:37:04.850Z,16.84
2023-05-10T08:39:54.237Z,16.92
2023-05-10T08:42:55.399Z,16.94
2023-05-10T08:45:49.131Z,16.92
2023-05-10T08:48:39.768Z,17.04
2023-05-10T08:51:33.741Z,17.17
2023-05-10T08:54:22.946Z,17.26
2023-05-10T08:57:12.224Z,17.29
2023-05-10T09:00:02.162Z,17.28
2023-05-10T09:02:51.707Z,17.33
2023-05-10T09:05:40.786Z,17.45
2023-05-10T09:08:30.549Z,17.52
2023-05-10T09:11:19.119Z,17.63
2023-05-10T09:14:08.228Z,17.70
2023-05-10T09:16:57.434Z,17.72
2023-05-10T09:19:46.799Z,17.69
2023-05-10T09:22:36.033Z,17.73
2023-05-10T09:25:24.660Z,17.83
2023-05-10T09:28:13.392Z,17.80
2023-05-10T09:31:02.422Z,17.89
2023-05-10T09:33:51.858Z,17.88
2023-05-10T09:36:55.672Z,17.93
2023-05-10T09:39:44.332Z,17.92
2023-05-10T09:42:33.322Z,17.90
2023-05-10T09:45:23.740Z,17.99
2023-05-10T09:48:12.676Z,18.07
2023-05-10T09:51:02.239Z,18.11
2023-05-10T09:54:14.176Z,18.13
2023-05-10T09:57:03.366Z,18.20
2023-05-10T09:59:53.026Z,18.17
2023-05-10T10:02:41.688Z,18.15
2023-05-10T10:05:37.113Z,18.21
2023-05-10T10:08:26.231Z,18.35
2023-05-10T10:11:15.164Z,18.36
2023-05-10T10:14:03.694Z,18.46
2023-05-10T10:17:06.527Z,18.59
2023-05-10T10:19:56.656Z,18.59
2023-05-10T10:22:45.463Z,18.66
2023-05-10T10:25:34.351Z,18.84
2023-05-10T10:28:53.108Z,18.91
2023-05-10T10:32:12.549Z,18.94
2023-05-10T10:35:02.028Z,18.97
2023-05-10T10:37:52.747Z,19.03
2023-05-10T10:40:41.832Z,19.12
2023-05-10T10:43:30.940Z,19.17
2023-05-10T10:46:22.021Z,19.28
2023-05-10T10:49:11.100Z,19.25
2023-05-10T10:52:19.236Z,19.30
2023-05-10T10:55:10.540Z,19.36
2023-05-10T10:58:02.066Z,19.43
2023-05-10T11:00:50.747Z,19.43
2023-05-10T11:03:39.927Z,19.55
2023-05-10T11:06:36.804Z,19.59
2023-05-10T11:09:25.998Z,19.69
2023-05-10T11:12:16.949Z,19.59
2023-05-10T11:15:10.393Z,19.46
2023-05-10T11:17:59.390Z,19.45
2023-05-10T11:20:59.804Z,19.49
2023-05-10T11:23:59.439Z,19.64
2023-05-10T11:26:51.523Z,19.74
2023-05-10T11:29:40.143Z,19.69
2023-05-10T11:32:29.337Z,19.63
2023-05-10T11:35:17.895Z,19.66
2023-05-10T11:38:08.153Z,19.71
2023-05-10T11:40:56.809Z,19.83
2023-05-10T11:43:49.953Z,19.93
2023-05-10T11:46:38.591Z,20.05
2023-05-10T11:49:29.513Z,20.04
2023-05-10T11:52:19.995Z,19.95
2023-05-10T11:55:09.183Z,19.89
2023-05-10T11:58:02.615Z,19.99
2023-05-10T12:00:52.450Z,20.14
2023-05-10T12:03:41.672Z,20.23
2023-05-10T12:06:33.929Z,20.13
2023-05-10T12:09:35.413Z,19.94
2023-05-10T12:12:26.336Z,20.03
2023-05-10T12:15:20.886Z,19.84
2023-05-10T12:18:13.962Z,19.90
2023-05-10T12:21:05.357Z,20.02
2023-05-10T12:23:56.687Z,20.12
2023-05-10T12:29:53.785Z,20.01
2023-05-10T12:32:43.304Z,20.13
2023-05-10T12:35:32.716Z,20.14
2023-05-10T12:38:33.074Z,20.20
2023-05-10T12:41:22.328Z,20.20
2023-05-10T12:44:11.198Z,20.00
2023-05-10T12:47:00.212Z,19.95
2023-05-10T12:49:48.742Z,20.02
2023-05-10T12:52:38.239Z,20.09
2023-05-10T12:55:26.797Z,20.17
2023-05-10T12:58:31.419Z,20.25
2023-05-10T13:01:23.948Z,20.30
2023-05-10T13:04:13.114Z,20.46
2023-05-10T13:07:01.683Z,20.45
2023-05-10T13:09:50.888Z,20.44
2023-05-10T13:12:39.462Z,20.62
2023-05-10T13:15:28.603Z,20.79
2023-05-10T13:18:17.133Z,20.89
2023-05-10T13:21:06.694Z,20.88
2023-05-10T13:23:55.258Z,20.67
2023-05-10T13:26:44.551Z,20.46
2023-05-10T13:29:33.102Z,20.48
2023-05-10T13:32:22.192Z,20.56
2023-05-10T13:35:10.844Z,20.67
2023-05-10T13:37:59.832Z,20.77
2023-05-10T13:40:48.408Z,20.82
2023-05-10T13:43:38.150Z,20.79
2023-05-10T13:46:26.614Z,20.68
2023-05-10T13:49:15.390Z,20.37
2023-05-10T13:52:07.786Z,20.17
2023-05-10T13:54:57.087Z,19.97
2023-05-10T13:57:45.765Z,20.03
2023-05-10T14:00:35.038Z,20.13
2023-05-10T14:03:26.509Z,20.14
2023-05-10T14:06:15.603Z,20.24
2023-05-10T14:09:04.812Z,20.40
2023-05-10T14:11:54.068Z,20.55
2023-05-10T14:14:44.488Z,20.68
2023-05-10T14:17:33.645Z,20.62
2023-05-10T14:20:22.592Z,20.56
2023-05-10T14:23:12.222Z,20.57
2023-05-10T14:26:00.852Z,20.56
2023-05-10T14:28:50.557Z,20.59
2023-05-10T14:31:41.559Z,20.63
2023-05-10T14:34:33.982Z,20.50
2023-05-10T14:37:22.854Z,20.40
2023-05-10T14:40:13.008Z,20.31
2023-05-10T14:43:01.675Z,20.25
2023-05-10T14:45:50.486Z,20.24
2023-05-10T14:48:38.974Z,20.25
2023-05-10T14:51:27.695Z,20.26
2023-05-10T14:54:16.253Z,20.23
2023-05-10T14:57:05.258Z,20.18
2023-05-10T14:59:55.884Z,19.99
2023-05-10T15:02:45.592Z,19.80
2023-05-10T15:05:38.386Z,19.66
2023-05-10T15:08:27.479Z,19.54
2023-05-10T15:11:16.095Z,19.41
2023-05-10T15:14:07.237Z,19.38
2023-05-10T15:16:56.245Z,19.34
2023-05-10T15:19:45.226Z,19.23
2023-05-10T15:22:34.494Z,19.19
2023-05-10T15:25:24.984Z,19.21
2023-05-10T15:28:13.655Z,19.18
2023-05-10T15:31:06.032Z,19.11
2023-05-10T15:34:00.383Z,19.00
2023-05-10T15:36:49.421Z,18.87
2023-05-10T15:39:41.060Z,18.76
2023-05-10T15:42:32.937Z,18.68
2023-05-10T15:45:21.443Z,18.62
2023-05-10T15:48:10.445Z,18.54
2023-05-10T15:50:59.122Z,18.44
2023-05-10T15:54:05.227Z,18.39
2023-05-10T15:56:55.291Z,18.30
2023-05-10T15:59:44.137Z,18.21
2023-05-10T16:02:32.812Z,18.08
2023-05-10T16:05:22.637Z,17.96
2023-05-10T16:08:11.162Z,17.82
2023-05-10T16:11:00.977Z,17.72
2023-05-10T16:13:49.498Z,17.64
2023-05-10T16:16:38.651Z,17.57
2023-05-10T16:19:29.157Z,17.52
2023-05-10T16:22:19.248Z,17.48
2023-05-10T16:25:08.392Z,17.43
2023-05-10T16:27:57.704Z,17.33
2023-05-10T16:30:47.503Z,17.24
2023-05-10T16:33:37.430Z,17.17
2023-05-10T16:36:26.294Z,17.11
2023-05-10T16:39:15.129Z,17.03
2023-05-10T16:42:03.861Z,16.97
2023-05-10T16:44:54.484Z,16.91
2023-05-10T16:47:46.427Z,16.86
2023-05-10T16:50:36.579Z,16.80
2023-05-10T16:53:25.129Z,16.74
2023-05-10T16:56:14.430Z,16.67
2023-05-10T16:59:03.828Z,16.62
2023-05-10T17:01:53.397Z,16.54
2023-05-10T17:04:42.872Z,16.48
2023-05-10T17:07:32.014Z,16.42
2023-05-10T17:10:20.659Z,16.37
2023-05-10T17:13:10.605Z,16.30
2023-05-10T17:16:03.667Z,16.23
2023-05-10T17:18:56.082Z,16.16
2023-05-10T17:21:44.763Z,16.11
2023-05-10T17:24:33.715Z,16.04
2023-05-10T17:27:22.218Z,15.99
2023-05-10T17:30:11.925Z,15.93
2023-05-10T17:33:01.013Z,15.85
2023-05-10T17:35:50.897Z,15.77
2023-05-10T17:38:39.620Z,15.69
2023-05-10T17:41:29.195Z,15.61
2023-05-10T17:44:17.774Z,15.52
2023-05-10T17:47:06.576Z,15.44
2023-05-10T17:49:55.100Z,15.35
2023-05-10T17:52:44.062Z,15.26
2023-05-10T17:55:33.526Z,15.16
2023-05-10T17:58:22.459Z,15.07
2023-05-10T18:01:11.219Z,14.98
2023-05-10T18:04:00.333Z,14.89
2023-05-10T18:06:49.394Z,14.80
2023-05-10T18:09:39.209Z,14.71
2023-05-10T18:12:27.998Z,14.62
2023-05-10T18:15:17.309Z,14.53
2023-05-10T18:18:05.952Z,14.43
2023-05-10T18:20:58.018Z,14.33
2023-05-10T18:23:47.051Z,14.23
2023-05-10T18:26:36.022Z,14.13
2023-05-10T18:29:24.606Z,14.03
2023-05-10T18:32:13.584Z,13.94
2023-05-10T18:35:04.527Z,13.84
2023-05-10T18:37:53.602Z,13.75
2023-05-10T18:40:42.417Z,13.65
2023-05-10T18:43:31.650Z,13.57
2023-05-10T18:46:20.792Z,13.49
2023-05-10T18:49:09.808Z,13.39
2023-05-10T18:51:58.498Z,13.30
2023-05-10T18:54:47.736Z,13.21
2023-05-10T18:57:41.802Z,13.13
2023-05-10T19:00:30.874Z,13.05
2023-05-10T19:03:20.628Z,12.94
2023-05-10T19:06:10.019Z,12.83
2023-05-10T19:08:59.113Z,12.74
2023-05-10T19:11:48.526Z,12.64
2023-05-10T19:14:37.027Z,12.55
2023-05-10T19:17:26.600Z,12.46
2023-05-10T19:20:15.108Z,12.38
2023-05-10T19:25:58.616Z,12.24
2023-05-10T19:28:47.530Z,12.19
2023-05-10T19:31:36.174Z,12.17
2023-05-10T19:34:25.088Z,12.13
2023-05-10T19:37:13.766Z,12.11
2023-05-10T19:40:02.965Z,12.07
2023-05-10T19:42:52.718Z,12.05
2023-05-10T19:45:42.001Z,12.01
2023-05-10T19:48:30.832Z,11.98
2023-05-10T19:51:19.709Z,11.94
2023-05-10T19:54:08.434Z,11.91
2023-05-10T19:56:57.330Z,11.86
2023-05-10T19:59:45.831Z,11.82
2023-05-10T20:02:34.734Z,11.77
2023-05-10T20:05:23.885Z,11.71
2023-05-10T20:08:13.046Z,11.67
2023-05-10T20:11:03.737Z,11.62
2023-05-10T20:13:53.020Z,11.58
2023-05-10T20:16:41.675Z,11.53
2023-05-10T20:19:30.665Z,11.47
2023-05-10T20:22:19.113Z,11.41
2023-05-10T20:25:08.387Z,11.34
2023-05-10T20:27:57.052Z,11.28
2023-05-10T20:30:45.913Z,11.22
2023-05-10T20:33:34.419Z,11.15
2023-05-10T20:36:23.406Z,11.10
2023-05-10T20:39:12.129Z,11.05
2023-05-10T20:42:01.105Z,10.98
2023-05-10T20:44:50.286Z,10.91
2023-05-10T20:47:39.455Z,10.86
2023-05-10T20:50:28.111Z,10.81
2023-05-10T20:53:18.588Z,10.74
2023-05-10T20:56:07.318Z,10.67
2023-05-10T20:58:56.682Z,10.61
2023-05-10T21:01:45.539Z,10.55
2023-05-10T21:04:35.305Z,10.51
2023-05-10T21:07:24.563Z,10.48
2023-05-10T21:10:13.772Z,10.42
2023-05-10T21:13:02.456Z,10.36
2023-05-10T21:15:51.605Z,10.31
2023-05-10T21:18:40.160Z,10.25
2023-05-10T21:21:29.674Z,10.18
2023-05-10T21:24:18.295Z,10.11
2023-05-10T21:27:09.152Z,10.03
2023-05-10T21:29:57.718Z,9.95
2023-05-10T21:32:47.191Z,9.88
2023-05-10T21:35:35.987Z,9.78
2023-05-10T21:38:25.425Z,9.72
2023-05-10T21:41:14.059Z,9.64
2023-05-10T21:44:03.331Z,9.57
2023-05-10T21:46:51.973Z,9.50
2023-05-10T21:49:40.967Z,9.43
2023-05-10T21:52:29.594Z,9.37
2023-05-10T21:55:19.649Z,9.29
2023-05-10T21:58:08.202Z,9.24
2023-05-10T22:01:00.809Z,9.18
2023-05-10T22:03:49.310Z,9.13
2023-05-10T22:06:38.731Z,9.08
2023-05-10T22:09:27.261Z,9.05
2023-05-10T22:12:16.240Z,9.00
2023-05-10T22:15:10.854Z,8.94
2023-05-10T22:18:00.090Z,8.89
2023-05-10T22:20:48.689Z,8.84
2023-05-10T22:23:37.608Z,8.80
2023-05-10T22:26:26.127Z,8.72
2023-05-10T22:29:14.909Z,8.63
2023-05-10T22:32:05.906Z,8.55
2023-05-10T22:34:54.697Z,8.49
2023-05-10T22:37:43.328Z,8.43
2023-05-10T22:40:32.569Z,8.37
2023-05-10T22:43:21.269Z,8.33
2023-05-10T22:46:10.702Z,8.31
2023-05-10T22:48:59.810Z,8.26
2023-05-10T22:51:48.590Z,8.20
2023-05-10T22:54:37.261Z,8.14
2023-05-10T22:57:26.676Z,8.11
2023-05-10T23:00:16.004Z,8.06
2023-05-10T23:03:06.752Z,8.04
2023-05-10T23:05:55.373Z,8.00
2023-05-10T23:08:44.601Z,7.96
2023-05-10T23:11:33.116Z,7.89
2023-05-10T23:14:22.024Z,7.83
2023-05-10T23:17:10.497Z,7.79
2023-05-10T23:20:00.192Z,7.74
2023-05-10T23:22:49.603Z,7.70
2023-05-10T23:25:38.890Z,7.65
2023-05-10T23:28:27.749Z,7.61
2023-05-10T23:31:17.090Z,7.57
2023-05-10T23:34:05.562Z,7.54
2023-05-10T23:36:54.777Z,7.50
2023-05-10T23:39:43.328Z,7.43
2023-05-10T23:42:32.757Z,7.37
2023-05-10T23:45:21.392Z,7.35
2023-05-10T23:48:10.132Z,7.31
2023-05-10T23:50:58.914Z,7.29
2023-05-10T23:53:48.079Z,7.27
2023-05-10T23:56:36.702Z,7.24
2023-05-10T23:59:25.849Z,7.18
